Camden, Texas
Current Conditions -  °F | °C
As of 12:53 AM on Sunday 26 Oct 2014 (Local Time) from KLFK Reporting Station
Clear Clear  
Wind Chill: 63°   Ceiling: Unl
Heat Index: 63°   Visibility: 7mi
Dew Point: 59°   Wind: 3mph
Humidity: 87%   Direction: 100°E
Pressure: 30.08"   Gusts: NA
Location:  30.92°N, 94.73°W
Report Text: KLFK 260553Z AUTO 10003KT 7SM CLR 17/15 A3008 RMK AO2 SLP181 T01720150 10239 20172 403060122 58007
Loading
Personal Weather Stations






























Interactive Weather Map
Tropical Storm Tracking
New forecast layout! Learn more

10-Day Weather Forecast

Advertisements
Track Severe Weather on mobile